Terminal Aerodrome Forecast
Issued by NWS

Home | Current Version | Previous Version | Text Only | Print | Product List | Glossary On
Versions: 1 2 3 4 5 6 7 8 9 10 11 12 13 14 15
127
FTPA31 PHFO 100538
TAFHMK
TAF
PHMK 100538Z 1006/1106 36005KT P6SM SKC
     FM102200 02008KT P6SM SCT040
     FM110400 36005KT P6SM SKC
      AMD NOT SKED=

USA.gov is the U.S. government's official web portal to all federal, state and local government web resources and services.